Uniontown, WA (99179)

7:02 AM PDT on August 22, 2014 (GMT -0700)
Town of Colton | Change Station
CLOSE
Current Station
Personal Weather Station
Location: Colton, WA
Elevation: 2579 ft
Nearby Weather Stations

Elev 2579 ft 46.57 °N, 117.12 °W | Updated 2 minutes ago

Scattered Clouds
Scattered Clouds
55.4 °F
Feels Like 55.4 °F
N
0.0
Wind Variable Wind from WSW
Gusts 3.0 mph

Today
High -- | Low -- °F
--% Chance of Precip.
Yesterday
High -- | Low -- °F
Precip. -- in
5:55 AM 7:45 PM
Waning Crescent, 8% visible
Pressure 29.91 in
Visibility 10.0 miles
Clouds Scattered Clouds 10000 ft
Dew Point 42 °F
Humidity 61%
Rainfall 0.00 in
Snow Depth Not available.
UV 0 out of 12
Pollen 6.30 out of 12
Air Quality Not available.
Flu Activity Not available.
METAR KLWS 221356Z 00000KT 10SM SCT100 18/08 A2993 RMK AO2 LTG DSNT NE AND E SLP126 T01780078

More Conditions Fewer Conditions

Pressure 29.91 in
Visibility 10.0 miles
Clouds Scattered Clouds 10000 ft
Dew Point 42 °F
Humidity 61%
Rainfall 0.00 in
Snow Depth Not available.
UV 0 out of 12
Pollen 6.30 out of 12
Air Quality Not available.
Flu Activity Not available.
METAR KLWS 221356Z 00000KT 10SM SCT100 18/08 A2993 RMK AO2 LTG DSNT NE AND E SLP126 T01780078

More Conditions Fewer Conditions

Nowcast | as of 6:14 am PDT on August 22, 2014

Scattered thunderstorms this morning...as of 6am showers and thunderstorms were in Whitman and Benewah counties and moving north into southern Spokane and Kootenai counties. These storms have been producing brief heavy rain and frequent lightning. Storms are moving to the north northeast at around 20 mph. Locations to be impacted in the next hour include but are not limited to Cheney...Rockford...Plummer and Emida.

×

10-Day Weather Forecast

Almanac

Astronomy

Aug. 22, 2014 Rise Set
Actual Time 5:55 AM PDT 7:45 PM PDT
Civil Twilight 5:23 AM PDT 8:17 PM PDT
Nautical Twilight 4:43 AM PDT 8:57 PM PDT
Astronomical Twilight 4:00 AM PDT 9:40 PM PDT
Moon 3:17 AM PDT 6:00 PM PDT
Length of Visible Light 14h 54m
Length of Day
13h 50m
Tomorrow will be 3m 5s shorter.
Waning Crescent, 8% of the Moon is Illuminated
Today
Waning Crescent
Aug 25
New
Sep 2
First Quarter
Sep 8
Full
Sep 15
Last Quarter

Today's Extremes

State Highs State Lows

Community

WunderPhotos

Upload Photos

1,746,171 photos uploaded!

Nearby

Snow Depth

Station Depth Elevation
Sourdough Gulch 0 in 4000 ft
Spruce Springs 1 in 5700 ft
Touchet 1 in 5530 ft
Quartz Peak 1 in 4700 ft
Bunchgrass Meadow 0 in 5000 ft

Earthquake Activity

City Distance Mag. Time & Date
No recent earthquake activity has been reported nearby.
Minimum magnitude displayed is 2.5.

Coastal Water Temperatures

Place Temperature
No Stations Reporting

Nearby Weather Stations